createdAt,value
2019-03-28T00:01:12.421Z,102744.65
2019-03-28T00:03:43.031Z,102743.73
2019-03-28T00:06:13.631Z,102741.81
2019-03-28T00:08:44.346Z,102738.78
2019-03-28T00:11:14.978Z,102735.81
2019-03-28T00:13:45.585Z,102738.89
2019-03-28T00:16:16.187Z,102748.39
2019-03-28T00:18:46.779Z,102744.36
2019-03-28T00:21:17.452Z,102745.81
2019-03-28T00:24:12.846Z,102748.77
2019-03-28T00:26:43.461Z,102743.27
2019-03-28T00:29:14.135Z,102751.38
2019-03-28T00:31:47.728Z,102750.50
2019-03-28T00:34:17.164Z,102752.45
2019-03-28T00:36:47.815Z,102749.77
2019-03-28T00:39:18.485Z,102755.94
2019-03-28T00:41:49.073Z,102754.00
2019-03-28T00:44:19.729Z,102758.23
2019-03-28T00:46:50.451Z,102754.31
2019-03-28T00:49:21.052Z,102760.14
2019-03-28T00:51:51.770Z,102753.42
2019-03-28T00:54:22.449Z,102754.56
2019-03-28T00:56:53.318Z,102756.34
2019-03-28T00:59:24.310Z,102766.48
2019-03-28T01:01:54.910Z,102767.33
2019-03-28T01:04:25.609Z,102770.66
2019-03-28T01:06:56.293Z,102769.05
2019-03-28T01:09:26.971Z,102768.30
2019-03-28T01:11:57.793Z,102772.26
2019-03-28T01:14:28.451Z,102773.19
2019-03-28T01:16:59.223Z,102774.85
2019-03-28T01:19:29.878Z,102775.61
2019-03-28T01:22:00.567Z,102770.84
2019-03-28T01:24:31.343Z,102768.64
2019-03-28T01:27:02.335Z,102768.47
2019-03-28T01:29:32.996Z,102763.03
2019-03-28T01:32:04.197Z,102772.78
2019-03-28T01:34:34.853Z,102770.25
2019-03-28T01:37:05.469Z,102762.51
2019-03-28T01:39:36.048Z,102769.84
2019-03-28T01:42:06.682Z,102771.80
2019-03-28T01:44:37.301Z,102767.12
2019-03-28T01:47:07.967Z,102757.70
2019-03-28T01:49:38.570Z,102758.30
2019-03-28T01:52:09.198Z,102746.55
2019-03-28T01:54:39.809Z,102751.91
2019-03-28T01:57:11.607Z,102754.94
2019-03-28T01:59:42.777Z,102756.70
2019-03-28T02:02:13.379Z,102755.85
2019-03-28T02:04:43.982Z,102756.39
2019-03-28T02:07:14.628Z,102755.37
2019-03-28T02:09:45.238Z,102747.77
2019-03-28T02:12:15.861Z,102748.16
2019-03-28T02:14:46.487Z,102750.25
2019-03-28T02:17:17.136Z,102750.20
2019-03-28T02:19:47.767Z,102748.66
2019-03-28T02:22:19.307Z,102743.52
2019-03-28T02:24:50.039Z,102740.95
2019-03-28T02:27:24.292Z,102745.33
2019-03-28T02:29:53.419Z,102751.10
2019-03-28T02:32:24.312Z,102763.45
2019-03-28T02:34:54.890Z,102758.50
2019-03-28T02:37:25.524Z,102759.93
2019-03-28T02:39:56.127Z,102755.13
2019-03-28T02:42:27.805Z,102763.17
2019-03-28T02:44:58.848Z,102764.50
2019-03-28T02:47:29.533Z,102768.78
2019-03-28T02:50:00.473Z,102774.21
2019-03-28T02:52:31.248Z,102780.45
2019-03-28T02:55:01.857Z,102783.77
2019-03-28T02:57:40.820Z,102788.47
2019-03-28T03:00:05.033Z,102784.91
2019-03-28T03:02:35.661Z,102781.67
2019-03-28T03:05:06.338Z,102785.93
2019-03-28T03:07:37.037Z,102793.68
2019-03-28T03:10:07.725Z,102785.48
2019-03-28T03:12:38.311Z,102786.37
2019-03-28T03:15:09.871Z,102786.16
2019-03-28T03:17:41.535Z,102788.74
2019-03-28T03:20:12.593Z,102788.20
2019-03-28T03:22:43.373Z,102793.53
2019-03-28T03:25:14.253Z,102798.07
2019-03-28T03:27:57.003Z,102801.92
2019-03-28T03:30:17.775Z,102807.58
2019-03-28T03:32:48.480Z,102806.69
2019-03-28T03:35:19.063Z,102808.02
2019-03-28T03:37:49.665Z,102813.98
2019-03-28T03:40:20.383Z,102809.09
2019-03-28T03:42:51.121Z,102811.03
2019-03-28T03:45:21.745Z,102809.06
2019-03-28T03:47:52.368Z,102807.74
2019-03-28T03:50:29.695Z,102806.97
2019-03-28T03:53:00.305Z,102803.73
2019-03-28T03:55:30.913Z,102805.89
2019-03-28T03:58:14.254Z,102803.27
2019-03-28T04:00:35.395Z,102798.59
2019-03-28T04:03:06.147Z,102798.12
2019-03-28T04:05:36.763Z,102805.52
2019-03-28T04:08:07.372Z,102799.47
2019-03-28T04:10:37.968Z,102802.39
2019-03-28T04:13:08.544Z,102800.11
2019-03-28T04:15:39.122Z,102797.41
2019-03-28T04:18:09.762Z,102798.63
2019-03-28T04:20:40.325Z,102797.90
2019-03-28T04:23:10.967Z,102800.97
2019-03-28T04:25:41.555Z,102807.88
2019-03-28T04:28:12.738Z,102800.23
2019-03-28T04:30:43.544Z,102800.91
2019-03-28T04:33:14.170Z,102801.58
2019-03-28T04:35:44.765Z,102801.49
2019-03-28T04:38:15.413Z,102794.27
2019-03-28T04:40:46.007Z,102795.09
2019-03-28T04:43:16.636Z,102798.59
2019-03-28T04:45:47.199Z,102800.81
2019-03-28T04:48:17.919Z,102799.41
2019-03-28T04:50:48.518Z,102799.36
2019-03-28T04:53:19.165Z,102803.28
2019-03-28T04:55:49.789Z,102803.27
2019-03-28T04:58:21.895Z,102804.72
2019-03-28T05:00:52.742Z,102808.59
2019-03-28T05:03:23.535Z,102801.58
2019-03-28T05:05:54.369Z,102791.91
2019-03-28T05:08:25.178Z,102798.63
2019-03-28T05:10:55.843Z,102795.70
2019-03-28T05:13:26.489Z,102798.78
2019-03-28T05:15:58.364Z,102799.06
2019-03-28T05:18:28.984Z,102799.62
2019-03-28T05:20:59.610Z,102800.51
2019-03-28T05:23:30.199Z,102807.08
2019-03-28T05:26:00.827Z,102805.81
2019-03-28T05:28:31.481Z,102806.52
2019-03-28T05:31:02.228Z,102805.59
2019-03-28T05:33:32.891Z,102810.44
2019-03-28T05:36:04.561Z,102820.23
2019-03-28T05:38:35.393Z,102815.44
2019-03-28T05:41:06.016Z,102818.79
2019-03-28T05:43:36.683Z,102829.66
2019-03-28T05:46:07.291Z,102836.49
2019-03-28T05:48:37.959Z,102833.91
2019-03-28T05:51:08.573Z,102827.95
2019-03-28T05:53:39.217Z,102833.17
2019-03-28T05:56:09.841Z,102834.94
2019-03-28T05:58:40.465Z,102837.53
2019-03-28T06:01:11.068Z,102837.64
2019-03-28T06:03:42.424Z,102839.33
2019-03-28T06:06:13.163Z,102838.25
2019-03-28T06:08:43.793Z,102841.27
2019-03-28T06:11:14.403Z,102835.51
2019-03-28T06:13:45.055Z,102850.42
2019-03-28T06:16:15.635Z,102862.39
2019-03-28T06:18:46.451Z,102859.06
2019-03-28T06:21:17.227Z,102862.72
2019-03-28T06:23:47.870Z,102863.98
2019-03-28T06:26:18.521Z,102869.52
2019-03-28T06:28:49.171Z,102871.17
2019-03-28T06:31:19.804Z,102875.17
2019-03-28T06:33:50.439Z,102882.03
2019-03-28T06:36:21.033Z,102881.16
2019-03-28T06:38:51.667Z,102880.45
2019-03-28T06:41:22.740Z,102882.11
2019-03-28T06:43:53.846Z,102880.73
2019-03-28T06:46:24.479Z,102878.29
2019-03-28T06:48:55.340Z,102874.40
2019-03-28T06:51:25.947Z,102887.52
2019-03-28T06:53:57.262Z,102889.88
2019-03-28T06:56:28.016Z,102885.73
2019-03-28T06:58:58.665Z,102893.92
2019-03-28T07:01:29.251Z,102890.56
2019-03-28T07:03:59.862Z,102892.05
2019-03-28T07:06:30.508Z,102897.25
2019-03-28T07:09:01.145Z,102895.11
2019-03-28T07:11:31.787Z,102897.50
2019-03-28T07:14:02.618Z,102903.83
2019-03-28T07:16:33.509Z,102909.04
2019-03-28T07:19:04.342Z,102907.24
2019-03-28T07:21:35.047Z,102911.19
2019-03-28T07:24:05.659Z,102913.72
2019-03-28T07:26:36.304Z,102925.69
2019-03-28T07:29:06.918Z,102925.95
2019-03-28T07:31:37.589Z,102924.50
2019-03-28T07:34:08.159Z,102921.32
2019-03-28T07:36:38.838Z,102922.62
2019-03-28T07:39:09.457Z,102921.84
2019-03-28T07:41:40.111Z,102929.07
2019-03-28T07:44:10.728Z,102921.69
2019-03-28T07:46:41.369Z,102925.33
2019-03-28T07:49:12.098Z,102927.02
2019-03-28T07:51:42.790Z,102940.16
2019-03-28T07:54:13.613Z,102941.79
2019-03-28T07:56:44.315Z,102943.11
2019-03-28T07:59:15.230Z,102939.22
2019-03-28T08:01:45.857Z,102949.97
2019-03-28T08:04:16.540Z,102938.05
2019-03-28T08:06:50.035Z,102937.22
2019-03-28T08:09:19.579Z,102945.68
2019-03-28T08:11:50.277Z,102941.09
2019-03-28T08:14:20.922Z,102944.72
2019-03-28T08:16:51.614Z,102940.94
2019-03-28T08:19:22.522Z,102939.30
2019-03-28T08:21:56.163Z,102946.30
2019-03-28T08:24:26.799Z,102946.36
2019-03-28T08:26:58.328Z,102953.30
2019-03-28T08:29:28.998Z,102957.48
2019-03-28T08:32:00.213Z,102957.82
2019-03-28T08:34:31.387Z,102958.33
2019-03-28T08:37:05.667Z,102960.03
2019-03-28T08:39:36.277Z,102962.57
2019-03-28T08:42:06.956Z,102962.40
2019-03-28T08:44:38.538Z,102964.91
2019-03-28T08:47:09.403Z,102967.91
2019-03-28T08:49:40.084Z,102966.38
2019-03-28T08:52:11.904Z,102973.90
2019-03-28T08:54:42.742Z,102976.73
2019-03-28T08:57:13.850Z,102979.80
2019-03-28T08:59:44.470Z,102980.91
2019-03-28T09:02:15.090Z,102976.04
2019-03-28T09:04:45.704Z,102982.97
2019-03-28T09:07:17.533Z,102983.45
2019-03-28T09:09:48.370Z,102982.66
2019-03-28T09:12:19.091Z,102995.00
2019-03-28T09:14:49.715Z,102993.81
2019-03-28T09:17:23.611Z,102998.25
2019-03-28T09:19:52.667Z,102998.34
2019-03-28T09:22:23.302Z,102998.19
2019-03-28T09:24:53.910Z,102990.30
2019-03-28T09:27:25.552Z,102987.13
2019-03-28T09:29:56.154Z,102988.06
2019-03-28T09:32:26.802Z,102986.48
2019-03-28T09:34:57.798Z,102988.91
2019-03-28T09:37:28.480Z,102986.78
2019-03-28T09:39:59.098Z,102990.75
2019-03-28T09:42:29.728Z,102983.25
2019-03-28T09:45:00.392Z,102981.55
2019-03-28T09:47:31.010Z,102980.97
2019-03-28T09:50:01.627Z,102981.70
2019-03-28T09:52:32.273Z,102975.36
2019-03-28T09:55:02.851Z,102971.08
2019-03-28T09:57:33.496Z,102973.59
2019-03-28T10:00:04.402Z,102972.39
2019-03-28T10:02:35.056Z,102973.16
2019-03-28T10:05:05.681Z,102973.16
2019-03-28T10:07:38.503Z,102976.77
2019-03-28T10:10:09.260Z,102972.32
2019-03-28T10:12:40.200Z,102967.65
2019-03-28T10:15:10.902Z,102972.11
2019-03-28T10:17:42.513Z,102966.27
2019-03-28T10:20:13.322Z,102971.22
2019-03-28T10:22:43.957Z,102972.42
2019-03-28T10:25:14.819Z,102974.34
2019-03-28T10:27:45.406Z,102971.01
2019-03-28T10:30:16.930Z,102972.59
2019-03-28T10:32:47.582Z,102975.56
2019-03-28T10:35:27.915Z,102982.87
2019-03-28T10:37:58.564Z,102976.80
2019-03-28T10:40:29.156Z,102979.84
2019-03-28T10:42:59.780Z,102976.26
2019-03-28T10:45:33.444Z,102986.03
2019-03-28T10:48:02.756Z,102984.32
2019-03-28T10:50:40.806Z,102987.86
2019-03-28T10:53:05.701Z,102990.86
2019-03-28T10:55:36.449Z,102989.84
2019-03-28T10:58:17.482Z,102996.52
2019-03-28T11:00:39.440Z,102992.67
2019-03-28T11:03:10.057Z,102992.39
2019-03-28T11:05:40.881Z,102991.71
2019-03-28T11:08:11.503Z,102999.08
2019-03-28T11:10:42.103Z,102996.88
2019-03-28T11:13:12.736Z,102996.57
2019-03-28T11:15:43.348Z,102998.55
2019-03-28T11:18:14.056Z,102991.63
2019-03-28T11:20:44.719Z,103001.48
2019-03-28T11:23:15.367Z,102998.94
2019-03-28T11:25:45.989Z,103004.67
2019-03-28T11:28:16.651Z,103007.09
2019-03-28T11:30:47.259Z,103004.81
2019-03-28T11:33:17.913Z,103009.97
2019-03-28T11:35:48.477Z,103003.20
2019-03-28T11:38:19.107Z,103008.98
2019-03-28T11:40:49.805Z,103005.31
2019-03-28T11:43:20.695Z,103005.44
2019-03-28T11:45:51.321Z,103008.72
2019-03-28T11:48:22.033Z,103000.47
2019-03-28T11:50:52.667Z,102999.61
2019-03-28T11:53:23.296Z,102995.06
2019-03-28T11:55:53.954Z,102990.75
2019-03-28T11:58:24.574Z,102986.09
2019-03-28T12:00:55.180Z,102988.93
2019-03-28T12:03:25.841Z,102991.75
2019-03-28T12:05:56.459Z,102993.71
2019-03-28T12:08:27.165Z,102987.95
2019-03-28T12:10:57.949Z,102980.01
2019-03-28T12:13:28.589Z,102981.42
2019-03-28T12:15:59.261Z,102982.06
2019-03-28T12:18:29.905Z,102984.48
2019-03-28T12:21:00.565Z,102989.96
2019-03-28T12:23:31.315Z,102988.73
2019-03-28T12:26:02.019Z,102988.73
2019-03-28T12:28:32.711Z,102985.84
2019-03-28T12:31:03.373Z,102988.27
2019-03-28T12:33:33.977Z,102982.71
2019-03-28T12:36:04.627Z,102979.44
2019-03-28T12:38:35.243Z,102977.44
2019-03-28T12:41:06.102Z,102976.61
2019-03-28T12:43:36.779Z,102974.38
2019-03-28T12:46:07.408Z,102971.42
2019-03-28T12:48:38.079Z,102970.38
2019-03-28T12:51:08.777Z,102968.99
2019-03-28T12:53:39.494Z,102971.88
2019-03-28T12:56:10.133Z,102975.13
2019-03-28T12:58:40.756Z,102970.79
2019-03-28T13:01:11.484Z,102973.34
2019-03-28T13:03:45.757Z,102969.81
2019-03-28T13:06:14.581Z,102968.84
2019-03-28T13:08:45.236Z,102972.00
2019-03-28T13:11:15.935Z,102973.52
2019-03-28T13:13:46.602Z,102976.49
2019-03-28T13:16:17.307Z,102973.55
2019-03-28T13:18:47.946Z,102973.55
2019-03-28T13:21:18.587Z,102973.41
2019-03-28T13:23:49.213Z,102973.48
2019-03-28T13:26:19.859Z,102973.48
2019-03-28T13:28:50.481Z,102979.50
2019-03-28T13:31:21.111Z,102977.19
2019-03-28T13:33:51.812Z,102974.05
2019-03-28T13:36:22.507Z,102976.09
2019-03-28T13:38:53.161Z,102980.62
2019-03-28T13:41:23.772Z,102973.14
2019-03-28T13:43:54.400Z,102981.60
2019-03-28T13:46:25.094Z,102974.02
2019-03-28T13:48:55.732Z,102982.38
2019-03-28T13:51:26.391Z,102980.62
2019-03-28T13:53:56.989Z,102975.33
2019-03-28T13:56:27.661Z,102975.33
2019-03-28T13:58:58.244Z,102972.95
2019-03-28T14:01:28.884Z,102976.02
2019-03-28T14:03:59.474Z,102979.41
2019-03-28T14:06:30.626Z,102971.52
2019-03-28T14:09:01.531Z,102968.87
2019-03-28T14:11:32.161Z,102988.66
2019-03-28T14:14:02.753Z,102963.66
2019-03-28T14:16:33.375Z,102972.55
2019-03-28T14:19:04.051Z,102966.98
2019-03-28T14:21:34.830Z,102966.98
2019-03-28T14:24:05.557Z,102967.96
2019-03-28T14:26:37.651Z,102978.00
2019-03-28T14:29:08.366Z,102962.00
2019-03-28T14:31:39.055Z,102962.00
2019-03-28T14:34:09.684Z,102974.83
2019-03-28T14:36:40.393Z,102968.02
2019-03-28T14:39:10.943Z,102974.19
2019-03-28T14:41:41.581Z,102974.19
2019-03-28T14:44:12.173Z,102977.81
2019-03-28T14:46:42.792Z,102952.16
2019-03-28T14:49:13.432Z,102967.16
2019-03-28T14:51:44.085Z,102978.03
2019-03-28T14:54:14.737Z,102982.28
2019-03-28T14:56:45.364Z,102967.47
2019-03-28T14:59:16.671Z,102967.47
2019-03-28T15:01:47.297Z,102969.35
2019-03-28T15:04:17.929Z,102967.27
2019-03-28T15:06:48.567Z,102959.66
2019-03-28T15:09:19.232Z,102959.52
2019-03-28T15:11:49.857Z,102960.91
2019-03-28T15:14:20.507Z,102951.80
2019-03-28T15:16:51.141Z,102957.80
2019-03-28T15:19:21.750Z,102959.59
2019-03-28T15:21:52.394Z,102959.59
2019-03-28T15:24:23.029Z,102953.43
2019-03-28T15:26:53.936Z,102946.03
2019-03-28T15:29:24.623Z,102946.03
2019-03-28T15:31:55.307Z,102943.81
2019-03-28T15:34:25.895Z,102943.81
2019-03-28T15:36:56.513Z,102950.36
2019-03-28T15:39:27.152Z,102950.36
2019-03-28T15:41:57.805Z,102945.55
2019-03-28T15:44:28.401Z,102948.41
2019-03-28T15:46:59.011Z,102949.64
2019-03-28T15:49:29.634Z,102945.52
2019-03-28T15:52:03.081Z,102952.77
2019-03-28T15:54:32.614Z,102947.31
2019-03-28T15:57:03.250Z,102954.09
2019-03-28T15:59:33.835Z,102951.28
2019-03-28T16:02:04.470Z,102950.63
2019-03-28T16:04:35.111Z,102953.43
2019-03-28T16:07:05.800Z,102952.58
2019-03-28T16:09:36.443Z,102947.33
2019-03-28T16:12:08.414Z,102945.77
2019-03-28T16:14:39.033Z,102948.48
2019-03-28T16:17:09.675Z,102958.77
2019-03-28T16:19:40.271Z,102953.08
2019-03-28T16:22:11.758Z,102961.14
2019-03-28T16:24:42.561Z,102958.59
2019-03-28T16:27:13.307Z,102958.59
2019-03-28T16:29:43.924Z,102982.05
2019-03-28T16:32:16.224Z,102956.25
2019-03-28T16:34:46.929Z,102960.59
2019-03-28T16:37:17.571Z,102962.81
2019-03-28T16:39:50.007Z,102962.81
2019-03-28T16:42:20.497Z,102968.25
2019-03-28T16:44:51.058Z,102964.22
2019-03-28T16:47:21.766Z,102964.22
2019-03-28T16:49:52.413Z,102960.88
2019-03-28T16:52:23.106Z,102958.97
2019-03-28T16:54:53.700Z,102961.66
2019-03-28T16:57:24.404Z,102954.53
2019-03-28T16:59:55.147Z,102958.87
2019-03-28T17:02:25.833Z,102959.63
2019-03-28T17:04:56.549Z,102962.87
2019-03-28T17:07:27.685Z,102962.87
2019-03-28T17:09:58.568Z,102963.88
2019-03-28T17:12:29.204Z,102963.66
2019-03-28T17:14:59.801Z,102970.44
2019-03-28T17:17:30.427Z,102964.67
2019-03-28T17:20:01.048Z,102958.48
2019-03-28T17:22:31.714Z,102962.52
2019-03-28T17:25:02.411Z,102963.92
2019-03-28T17:27:33.136Z,102970.51
2019-03-28T17:30:06.930Z,102967.55
2019-03-28T17:32:36.844Z,102977.75
2019-03-28T17:35:07.804Z,102975.14
2019-03-28T17:37:38.470Z,102968.67
2019-03-28T17:40:09.185Z,102968.67
2019-03-28T17:42:39.821Z,102969.50
2019-03-28T17:45:10.459Z,102972.02
2019-03-28T17:47:41.131Z,102973.48
2019-03-28T17:50:11.869Z,102971.09
2019-03-28T17:52:42.541Z,102974.63
2019-03-28T17:55:13.150Z,102974.63
2019-03-28T17:57:43.768Z,102976.80
2019-03-28T18:00:14.419Z,102978.59
2019-03-28T18:02:45.040Z,102981.03
2019-03-28T18:05:16.066Z,102980.66
2019-03-28T18:07:46.823Z,102983.78
2019-03-28T18:10:17.535Z,102987.84
2019-03-28T18:12:48.133Z,102986.05
2019-03-28T18:15:18.743Z,102986.34
2019-03-28T18:17:49.321Z,102989.78
2019-03-28T18:20:19.940Z,102997.47
2019-03-28T18:22:50.527Z,102988.77
2019-03-28T18:25:21.141Z,102988.77
2019-03-28T18:27:51.739Z,102995.78
2019-03-28T18:30:22.619Z,102997.23
2019-03-28T18:32:53.222Z,103004.16
2019-03-28T18:35:23.818Z,103004.16
2019-03-28T18:37:54.470Z,102999.20
2019-03-28T18:40:25.071Z,103002.63
2019-03-28T18:42:55.712Z,102998.08
2019-03-28T18:45:26.328Z,102998.08
2019-03-28T18:47:57.005Z,103006.16
2019-03-28T18:50:30.386Z,103006.16
2019-03-28T18:53:01.790Z,103001.77
2019-03-28T18:55:32.422Z,103007.05
2019-03-28T18:58:03.049Z,103009.95
2019-03-28T19:00:33.693Z,103009.95
2019-03-28T19:03:04.358Z,103010.71
2019-03-28T19:05:34.966Z,103010.71
2019-03-28T19:08:05.580Z,103012.09
2019-03-28T19:10:36.248Z,103009.05
2019-03-28T19:13:06.963Z,103014.00
2019-03-28T19:15:37.580Z,103014.00
2019-03-28T19:18:08.231Z,103004.38
2019-03-28T19:20:38.819Z,103004.38
2019-03-28T19:23:09.451Z,103011.37
2019-03-28T19:25:40.043Z,103009.36
2019-03-28T19:28:11.064Z,103009.36
2019-03-28T19:30:41.939Z,103009.36
2019-03-28T19:33:12.598Z,103011.14
2019-03-28T19:35:43.226Z,103014.75
2019-03-28T19:38:13.854Z,103014.75
2019-03-28T19:40:44.489Z,103011.37
2019-03-28T19:43:20.913Z,103014.75
2019-03-28T19:45:47.396Z,103013.41
2019-03-28T19:48:18.015Z,103001.28
2019-03-28T19:50:48.611Z,103009.36
2019-03-28T19:53:19.239Z,103000.22
2019-03-28T19:55:49.812Z,103011.48
2019-03-28T19:58:20.457Z,102999.48
2019-03-28T20:00:51.159Z,103016.25
2019-03-28T20:03:23.409Z,103008.36
2019-03-28T20:05:54.362Z,103013.87
2019-03-28T20:08:26.344Z,103011.56
2019-03-28T20:10:57.099Z,103006.23
2019-03-28T20:13:30.724Z,103013.34
2019-03-28T20:16:00.061Z,103013.34
2019-03-28T20:18:30.725Z,103016.06
2019-03-28T20:21:02.344Z,103016.69
2019-03-28T20:23:35.441Z,103015.03
2019-03-28T20:26:05.306Z,103015.53
2019-03-28T20:28:35.875Z,103002.59
2019-03-28T20:31:06.507Z,103002.59
2019-03-28T20:33:37.842Z,103017.66
2019-03-28T20:36:35.751Z,103017.66
2019-03-28T20:38:41.077Z,103017.97
2019-03-28T20:41:11.795Z,103021.17
2019-03-28T20:43:42.387Z,103025.62
2019-03-28T20:46:13.055Z,103040.76
2019-03-28T20:48:43.703Z,103031.56
2019-03-28T20:51:14.306Z,103038.68
2019-03-28T20:53:44.927Z,103038.68
2019-03-28T20:56:15.555Z,103034.14
2019-03-28T20:58:46.217Z,103042.80
2019-03-28T21:01:16.837Z,103044.34
2019-03-28T21:03:49.566Z,103050.95
2019-03-28T21:06:20.226Z,103042.54
2019-03-28T21:08:50.813Z,103042.54
2019-03-28T21:11:21.458Z,103052.36
2019-03-28T21:13:52.031Z,103053.00
2019-03-28T21:16:22.635Z,103053.00
2019-03-28T21:18:53.242Z,103044.72
2019-03-28T21:21:23.873Z,103061.06
2019-03-28T21:23:54.488Z,103057.70
2019-03-28T21:26:25.155Z,103048.11
2019-03-28T21:28:55.767Z,103054.72
2019-03-28T21:31:26.413Z,103064.11
2019-03-28T21:33:57.019Z,103057.23
2019-03-28T21:36:30.102Z,103059.87
2019-03-28T21:38:59.962Z,103056.91
2019-03-28T21:41:30.649Z,103056.91
2019-03-28T21:44:01.261Z,103063.05
2019-03-28T21:46:32.269Z,103054.79
2019-03-28T21:49:03.577Z,103054.79
2019-03-28T21:51:34.243Z,103064.22
2019-03-28T21:54:05.271Z,103063.87
2019-03-28T21:56:36.049Z,103068.33
2019-03-28T21:59:06.757Z,103066.98
2019-03-28T22:01:37.462Z,103069.15
2019-03-28T22:04:08.914Z,103065.44
2019-03-28T22:06:43.174Z,103058.63
2019-03-28T22:09:12.267Z,103066.80
2019-03-28T22:11:42.959Z,103056.34
2019-03-28T22:14:13.819Z,103058.70
2019-03-28T22:16:44.655Z,103058.70
2019-03-28T22:19:15.330Z,103053.89
2019-03-28T22:21:45.966Z,103050.42
2019-03-28T22:24:16.626Z,103054.27
2019-03-28T22:26:47.350Z,103054.68
2019-03-28T22:29:17.997Z,103056.71
2019-03-28T22:31:48.700Z,103056.89
2019-03-28T22:34:19.476Z,103056.89
2019-03-28T22:36:57.237Z,103047.73
2019-03-28T22:39:22.530Z,103048.95
2019-03-28T22:41:53.248Z,103048.95
2019-03-28T22:44:24.812Z,103053.82
2019-03-28T22:46:55.674Z,103051.97
2019-03-28T22:49:26.364Z,103038.38
2019-03-28T22:51:57.161Z,103048.42
2019-03-28T22:54:27.776Z,103035.09
2019-03-28T22:56:58.463Z,103035.09
2019-03-28T22:59:29.178Z,103040.09
2019-03-28T23:01:59.882Z,103036.50
2019-03-28T23:04:29.723Z,103031.61
2019-03-28T23:07:10.407Z,103033.31
2019-03-28T23:09:31.116Z,103032.22
2019-03-28T23:12:03.082Z,103025.55
2019-03-28T23:14:32.918Z,103033.17
2019-03-28T23:17:02.753Z,103031.30
2019-03-28T23:19:32.590Z,103027.71
2019-03-28T23:22:02.454Z,103025.16
2019-03-28T23:24:32.294Z,103019.74
2019-03-28T23:27:02.309Z,103019.74
2019-03-28T23:29:32.209Z,103018.62
2019-03-28T23:32:02.670Z,103012.38
2019-03-28T23:34:32.486Z,103012.80
2019-03-28T23:37:02.377Z,103016.15
2019-03-28T23:39:32.196Z,103008.66
2019-03-28T23:42:02.612Z,103010.63
2019-03-28T23:44:32.412Z,103007.86
2019-03-28T23:47:02.250Z,103000.55
2019-03-28T23:49:32.112Z,103000.10
2019-03-28T23:52:02.737Z,102995.00
2019-03-28T23:54:32.552Z,103002.50
2019-03-28T23:57:03.087Z,102993.02
2019-03-28T23:59:33.058Z,102993.27
